< Typhoon 199914 1999 Season Typhoon 199916 >
Typhoon 199915 (YORK)
General InformationTrack Information on Google MapsDetailed Wind InformationList of All Images || Disaster Info.ResourceGoogle EarthGE AnimationAtom FeedGeoJSON
Detalied Best Track (Time Zone = UTC)
Year Month Day Hour Lat. Long. Pressure (hPa) Wind (kt) Class Image Chart
1999 9 9 18 16.8 124.2 1004 0 2 Image Chart
1999 9 10 00 16.8 124.0 1004 0 2 Image Chart
1999 9 10 06 17.2 123.8 1004 0 2 Image Chart
1999 9 10 12 17.7 123.5 1004 0 2 Image Chart
1999 9 10 18 17.8 123.5 1000 0 2 Image Chart
1999 9 11 00 17.8 123.8 1000 0 2 Image Chart
1999 9 11 06 17.7 123.0 1000 0 2 Image Chart
1999 9 11 12 17.3 122.4 1000 0 2 Image Chart
1999 9 11 18 17.1 122.1 1000 0 2 Image Chart
1999 9 12 00 17.0 121.8 1000 0 2 Image Chart
1999 9 12 06 18.5 120.0 998 0 2 Image Chart
1999 9 12 12 18.7 118.5 996 0 2 Image Chart
1999 9 12 18 18.7 118.5 996 0 2 Image Chart
1999 9 13 00 18.0 117.7 996 0 2 Image Chart
1999 9 13 06 18.0 117.4 994 0 2 Image Chart
1999 9 13 12 18.2 116.8 992 35 3 Image Chart
1999 9 13 18 18.6 116.1 990 40 3 Image Chart
1999 9 14 00 19.4 116.3 990 40 3 Image Chart
1999 9 14 06 20.1 116.7 985 50 4 Image Chart
1999 9 14 12 20.4 115.9 980 55 4 Image Chart
1999 9 14 18 20.5 115.7 980 55 4 Image Chart
1999 9 15 00 20.9 115.9 980 55 4 Image Chart
1999 9 15 06 21.3 115.6 980 55 4 Image Chart
1999 9 15 12 21.6 115.4 985 55 4 Image Chart
1999 9 15 18 21.9 114.9 985 55 4 Image Chart
1999 9 16 00 22.2 114.2 985 55 4 Image Chart
1999 9 16 06 22.3 113.7 985 55 4 Image Chart
1999 9 16 12 22.6 113.3 990 50 4 Image Chart
1999 9 16 18 23.3 113.0 990 45 3 Image Chart
1999 9 17 00 23.9 112.4 998 0 2 Image Chart
1999 9 17 06 24.0 112.4 1000 0 2 Image Chart
1999 9 17 12 24.2 112.2 1002 0 2 Image Chart
1999 9 17 18 24.3 112.1 1004 0 2 Image Chart
Japan Meteorological Agency Best Track Data | Correction Date : 2005-03-01
< Typhoon 199914 1999 Season Typhoon 199916 >

Help